createdAt,value
2023-03-30T00:00:30.157Z,2.06
2023-03-30T00:02:01.525Z,2.14
2023-03-30T00:03:33.418Z,2.16
2023-03-30T00:05:05.156Z,2.05
2023-03-30T00:06:38.071Z,2.07
2023-03-30T00:08:09.614Z,2.15
2023-03-30T00:09:41.166Z,1.96
2023-03-30T00:11:12.476Z,2.11
2023-03-30T00:12:43.818Z,2.34
2023-03-30T00:14:15.385Z,2.14
2023-03-30T00:15:46.700Z,2.08
2023-03-30T00:17:18.286Z,2.01
2023-03-30T00:18:50.073Z,2.08
2023-03-30T00:20:21.640Z,2.00
2023-03-30T00:21:53.171Z,2.24
2023-03-30T00:23:24.575Z,2.72
2023-03-30T00:24:56.250Z,1.98
2023-03-30T00:26:27.655Z,2.35
2023-03-30T00:27:59.208Z,2.14
2023-03-30T00:29:30.513Z,2.14
2023-03-30T00:31:02.648Z,2.01
2023-03-30T00:32:34.282Z,2.31
2023-03-30T00:34:06.732Z,1.98
2023-03-30T00:35:38.230Z,2.13
2023-03-30T00:37:09.596Z,2.20
2023-03-30T00:38:41.155Z,2.04
2023-03-30T00:40:12.430Z,2.16
2023-03-30T00:41:43.932Z,2.02
2023-03-30T00:43:15.458Z,1.98
2023-03-30T00:44:46.780Z,2.08
2023-03-30T00:46:18.138Z,2.08
2023-03-30T00:47:49.608Z,1.96
2023-03-30T00:49:21.049Z,2.20
2023-03-30T00:50:52.625Z,2.06
2023-03-30T00:52:24.266Z,1.99
2023-03-30T00:53:55.626Z,2.20
2023-03-30T00:55:26.908Z,2.19
2023-03-30T00:56:58.240Z,2.17
2023-03-30T00:58:29.697Z,2.00
2023-03-30T01:00:00.986Z,2.11
2023-03-30T01:01:32.319Z,2.24
2023-03-30T01:03:03.785Z,2.06
2023-03-30T01:04:35.157Z,1.90
2023-03-30T01:06:06.417Z,2.08
2023-03-30T01:07:37.753Z,2.05
2023-03-30T01:09:09.238Z,2.06
2023-03-30T01:10:40.624Z,2.12
2023-03-30T01:12:11.997Z,2.04
2023-03-30T01:13:43.838Z,1.78
2023-03-30T01:15:15.301Z,2.18
2023-03-30T01:16:46.694Z,2.04
2023-03-30T01:18:17.976Z,1.85
2023-03-30T01:19:49.547Z,1.87
2023-03-30T01:21:20.906Z,2.34
2023-03-30T01:22:52.279Z,2.27
2023-03-30T01:24:23.668Z,2.06
2023-03-30T01:25:55.290Z,2.00
2023-03-30T01:27:26.667Z,2.04
2023-03-30T01:28:58.160Z,2.16
2023-03-30T01:30:29.628Z,2.20
2023-03-30T01:32:00.916Z,1.94
2023-03-30T01:33:32.726Z,2.07
2023-03-30T01:35:04.237Z,2.11
2023-03-30T01:36:35.716Z,2.27
2023-03-30T01:38:07.130Z,2.02
2023-03-30T01:39:38.881Z,1.88
2023-03-30T01:41:10.148Z,2.10
2023-03-30T01:42:41.870Z,1.88
2023-03-30T01:44:13.229Z,2.27
2023-03-30T01:45:44.744Z,1.90
2023-03-30T01:47:16.422Z,2.15
2023-03-30T01:48:47.847Z,2.17
2023-03-30T01:50:19.404Z,2.10
2023-03-30T01:51:51.021Z,2.07
2023-03-30T01:53:22.392Z,2.00
2023-03-30T01:54:54.064Z,2.33
2023-03-30T01:56:25.479Z,1.99
2023-03-30T01:57:56.952Z,1.81
2023-03-30T01:59:28.464Z,1.95
2023-03-30T02:01:01.281Z,1.96
2023-03-30T02:02:32.955Z,1.92
2023-03-30T02:04:04.781Z,2.12
2023-03-30T02:05:36.240Z,1.94
2023-03-30T02:07:07.564Z,2.11
2023-03-30T02:08:38.903Z,2.14
2023-03-30T02:10:10.514Z,2.11
2023-03-30T02:11:42.041Z,2.06
2023-03-30T02:13:13.403Z,2.21
2023-03-30T02:14:44.833Z,2.17
2023-03-30T02:16:16.557Z,2.15
2023-03-30T02:17:47.973Z,2.08
2023-03-30T02:19:19.428Z,2.03
2023-03-30T02:20:50.728Z,1.98
2023-03-30T02:22:22.130Z,2.32
2023-03-30T02:23:53.546Z,2.23
2023-03-30T02:25:25.509Z,2.15
2023-03-30T02:26:56.980Z,2.08
2023-03-30T02:28:28.984Z,2.00
2023-03-30T02:30:01.217Z,2.03
2023-03-30T02:31:32.657Z,1.80
2023-03-30T02:33:04.046Z,2.11
2023-03-30T02:34:35.657Z,2.11
2023-03-30T02:36:06.980Z,2.03
2023-03-30T02:37:38.698Z,2.22
2023-03-30T02:39:12.468Z,2.11
2023-03-30T02:40:45.453Z,2.13
2023-03-30T02:42:16.789Z,2.01
2023-03-30T02:43:48.102Z,2.05
2023-03-30T02:45:19.472Z,2.34
2023-03-30T02:46:51.133Z,2.32
2023-03-30T02:48:22.583Z,2.02
2023-03-30T02:49:54.379Z,2.22
2023-03-30T02:51:25.955Z,2.07
2023-03-30T02:52:57.396Z,2.16
2023-03-30T02:54:29.612Z,2.22
2023-03-30T02:56:00.959Z,2.11
2023-03-30T02:57:32.334Z,2.13
2023-03-30T02:59:04.016Z,2.00
2023-03-30T03:00:35.454Z,2.20
2023-03-30T03:02:07.532Z,2.07
2023-03-30T03:03:39.372Z,2.25
2023-03-30T03:05:10.765Z,2.06
2023-03-30T03:06:42.210Z,1.99
2023-03-30T03:08:13.569Z,2.07
2023-03-30T03:09:45.013Z,2.14
2023-03-30T03:11:16.341Z,2.08
2023-03-30T03:12:48.241Z,2.03
2023-03-30T03:14:19.562Z,2.16
2023-03-30T03:15:51.182Z,2.11
2023-03-30T03:17:23.624Z,2.09
2023-03-30T03:18:55.080Z,1.89
2023-03-30T03:20:26.481Z,2.28
2023-03-30T03:21:57.868Z,2.15
2023-03-30T03:23:29.810Z,2.05
2023-03-30T03:25:01.236Z,2.16
2023-03-30T03:26:32.565Z,2.33
2023-03-30T03:28:03.964Z,2.43
2023-03-30T03:29:35.264Z,2.06
2023-03-30T03:31:07.032Z,2.27
2023-03-30T03:32:39.189Z,2.20
2023-03-30T03:34:10.628Z,1.81
2023-03-30T03:35:42.201Z,1.94
2023-03-30T03:37:15.901Z,1.99
2023-03-30T03:38:47.354Z,2.08
2023-03-30T03:40:18.797Z,2.16
2023-03-30T03:41:50.203Z,1.74
2023-03-30T03:43:21.714Z,1.95
2023-03-30T03:44:53.095Z,2.06
2023-03-30T03:46:24.564Z,1.72
2023-03-30T03:47:56.238Z,2.10
2023-03-30T03:49:27.855Z,2.02
2023-03-30T03:50:59.353Z,1.50
2023-03-30T03:52:30.676Z,1.66
2023-03-30T03:54:02.068Z,1.72
2023-03-30T03:55:33.594Z,1.55
2023-03-30T03:57:04.920Z,1.75
2023-03-30T03:58:36.478Z,1.80
2023-03-30T04:00:08.073Z,2.06
2023-03-30T04:01:39.524Z,2.05
2023-03-30T04:03:10.917Z,2.11
2023-03-30T04:04:42.463Z,1.95
2023-03-30T04:06:13.978Z,1.87
2023-03-30T04:07:45.364Z,1.98
2023-03-30T04:09:16.759Z,1.97
2023-03-30T04:10:48.258Z,2.27
2023-03-30T04:12:19.707Z,2.36
2023-03-30T04:13:51.188Z,2.28
2023-03-30T04:15:22.654Z,2.32
2023-03-30T04:16:54.018Z,2.33
2023-03-30T04:18:25.429Z,2.29
2023-03-30T04:19:56.877Z,2.36
2023-03-30T04:21:28.456Z,2.39
2023-03-30T04:23:00.083Z,2.62
2023-03-30T04:24:31.541Z,2.68
2023-03-30T04:26:02.848Z,2.55
2023-03-30T04:27:34.308Z,2.54
2023-03-30T04:29:05.815Z,2.43
2023-03-30T04:31:08.802Z,2.40
2023-03-30T04:32:40.483Z,2.06
2023-03-30T04:34:12.079Z,2.16
2023-03-30T04:35:43.572Z,2.04
2023-03-30T04:37:14.887Z,1.96
2023-03-30T04:38:46.473Z,1.88
2023-03-30T04:40:17.790Z,1.70
2023-03-30T04:41:49.355Z,1.71
2023-03-30T04:43:20.716Z,2.06
2023-03-30T04:44:52.352Z,2.18
2023-03-30T04:46:23.970Z,2.10
2023-03-30T04:47:55.859Z,1.97
2023-03-30T04:49:27.445Z,1.70
2023-03-30T04:50:58.989Z,1.81
2023-03-30T04:52:30.656Z,2.12
2023-03-30T04:54:02.076Z,1.85
2023-03-30T04:55:33.937Z,2.01
2023-03-30T04:57:05.442Z,2.08
2023-03-30T04:58:37.023Z,2.12
2023-03-30T05:00:08.391Z,2.14
2023-03-30T05:01:40.235Z,2.23
2023-03-30T05:03:11.945Z,1.97
2023-03-30T05:04:43.424Z,2.10
2023-03-30T05:06:15.207Z,2.28
2023-03-30T05:07:46.751Z,2.34
2023-03-30T05:09:18.652Z,2.09
2023-03-30T05:10:50.061Z,2.22
2023-03-30T05:12:21.557Z,2.26
2023-03-30T05:13:53.057Z,2.55
2023-03-30T05:15:24.421Z,2.35
2023-03-30T05:16:55.903Z,2.40
2023-03-30T05:18:27.309Z,2.23
2023-03-30T05:19:58.644Z,2.28
2023-03-30T05:21:30.236Z,2.15
2023-03-30T05:23:03.977Z,2.13
2023-03-30T05:24:35.377Z,2.18
2023-03-30T05:26:06.959Z,2.05
2023-03-30T05:27:38.354Z,2.24
2023-03-30T05:29:10.179Z,2.35
2023-03-30T05:30:41.766Z,2.24
2023-03-30T05:32:13.151Z,2.07
2023-03-30T05:33:44.795Z,2.29
2023-03-30T05:35:16.184Z,2.05
2023-03-30T05:36:47.500Z,2.53
2023-03-30T05:38:18.892Z,1.94
2023-03-30T05:39:50.395Z,2.34
2023-03-30T05:41:21.726Z,2.27
2023-03-30T05:42:53.425Z,2.05
2023-03-30T05:44:24.862Z,2.29
2023-03-30T05:45:56.410Z,2.12
2023-03-30T05:47:28.042Z,1.57
2023-03-30T05:48:59.633Z,1.85
2023-03-30T05:50:31.297Z,1.81
2023-03-30T05:52:02.775Z,2.03
2023-03-30T05:53:34.263Z,2.09
2023-03-30T05:55:05.676Z,2.13
2023-03-30T05:56:37.117Z,2.30
2023-03-30T05:58:08.783Z,2.02
2023-03-30T05:59:40.243Z,2.00
2023-03-30T06:01:11.716Z,2.16
2023-03-30T06:02:43.084Z,2.12
2023-03-30T06:04:15.051Z,2.41
2023-03-30T06:05:46.767Z,2.16
2023-03-30T06:07:18.269Z,1.91
2023-03-30T06:08:50.246Z,2.36
2023-03-30T06:10:21.575Z,2.27
2023-03-30T06:11:53.109Z,2.26
2023-03-30T06:13:24.507Z,2.06
2023-03-30T06:14:56.762Z,1.88
2023-03-30T06:16:28.494Z,1.95
2023-03-30T06:17:59.947Z,1.96
2023-03-30T06:19:31.518Z,1.63
2023-03-30T06:21:03.421Z,2.40
2023-03-30T06:22:34.939Z,2.16
2023-03-30T06:24:06.610Z,2.02
2023-03-30T06:25:38.261Z,2.43
2023-03-30T06:27:09.542Z,2.02
2023-03-30T06:28:41.071Z,2.23
2023-03-30T06:30:12.378Z,2.33
2023-03-30T06:31:43.839Z,2.51
2023-03-30T06:33:15.303Z,2.32
2023-03-30T06:34:47.073Z,2.26
2023-03-30T06:36:18.702Z,2.32
2023-03-30T06:37:50.107Z,2.07
2023-03-30T06:39:21.435Z,2.34
2023-03-30T06:40:52.807Z,2.07
2023-03-30T06:42:24.203Z,1.94
2023-03-30T06:43:55.817Z,2.13
2023-03-30T06:45:27.397Z,1.69
2023-03-30T06:46:58.854Z,1.49
2023-03-30T06:48:30.861Z,1.74
2023-03-30T06:50:02.260Z,1.95
2023-03-30T06:51:34.237Z,1.97
2023-03-30T06:53:05.938Z,1.94
2023-03-30T06:54:37.271Z,1.85
2023-03-30T06:56:08.744Z,1.76
2023-03-30T06:57:40.390Z,2.16
2023-03-30T06:59:11.762Z,1.92
2023-03-30T07:00:43.085Z,1.84
2023-03-30T07:02:14.854Z,1.97
2023-03-30T07:03:46.312Z,2.11
2023-03-30T07:05:17.617Z,1.79
2023-03-30T07:06:49.336Z,2.21
2023-03-30T07:08:20.750Z,1.86
2023-03-30T07:09:52.587Z,2.11
2023-03-30T07:11:24.192Z,2.43
2023-03-30T07:12:55.623Z,2.12
2023-03-30T07:14:27.356Z,2.18
2023-03-30T07:15:58.768Z,2.24
2023-03-30T07:17:30.368Z,2.12
2023-03-30T07:19:02.357Z,2.17
2023-03-30T07:20:35.057Z,2.17
2023-03-30T07:22:06.682Z,2.56
2023-03-30T07:23:38.222Z,2.00
2023-03-30T07:25:09.636Z,1.71
2023-03-30T07:26:41.323Z,2.04
2023-03-30T07:28:12.679Z,2.35
2023-03-30T07:29:44.050Z,2.02
2023-03-30T07:31:15.514Z,1.96
2023-03-30T07:32:47.311Z,1.99
2023-03-30T07:34:19.415Z,1.68
2023-03-30T07:35:50.867Z,1.86
2023-03-30T07:37:22.517Z,1.65
2023-03-30T07:38:53.987Z,1.70
2023-03-30T07:40:25.448Z,1.33
2023-03-30T07:41:57.336Z,1.29
2023-03-30T07:43:28.877Z,1.47
2023-03-30T07:45:00.668Z,1.58
2023-03-30T07:46:32.233Z,1.81
2023-03-30T07:48:03.935Z,1.68
2023-03-30T07:49:35.493Z,1.80
2023-03-30T07:51:06.933Z,1.43
2023-03-30T07:52:38.954Z,1.31
2023-03-30T07:54:10.719Z,1.39
2023-03-30T07:55:42.086Z,2.25
2023-03-30T07:57:13.590Z,1.84
2023-03-30T07:58:45.243Z,1.70
2023-03-30T08:00:16.837Z,1.50
2023-03-30T08:01:48.440Z,1.70
2023-03-30T08:03:19.893Z,1.88
2023-03-30T08:04:51.593Z,1.82
2023-03-30T08:06:23.007Z,1.89
2023-03-30T08:07:54.294Z,2.01
2023-03-30T08:09:25.699Z,1.75
2023-03-30T08:10:57.079Z,1.83
2023-03-30T08:12:28.400Z,1.84
2023-03-30T08:14:00.208Z,1.92
2023-03-30T08:15:31.662Z,1.31
2023-03-30T08:17:03.036Z,1.47
2023-03-30T08:18:34.443Z,1.64
2023-03-30T08:20:06.037Z,1.57
2023-03-30T08:21:37.817Z,1.77
2023-03-30T08:23:09.343Z,1.64
2023-03-30T08:24:40.681Z,1.90
2023-03-30T08:26:12.366Z,1.64
2023-03-30T08:27:43.748Z,1.69
2023-03-30T08:29:15.207Z,1.34
2023-03-30T08:30:46.780Z,1.34
2023-03-30T08:32:18.182Z,1.30
2023-03-30T08:33:49.885Z,1.03
2023-03-30T08:35:21.234Z,1.17
2023-03-30T08:36:53.004Z,1.15
2023-03-30T08:38:24.422Z,1.20
2023-03-30T08:39:55.772Z,1.18
2023-03-30T08:41:27.193Z,1.27
2023-03-30T08:42:58.912Z,1.60
2023-03-30T08:44:30.239Z,1.32
2023-03-30T08:46:01.863Z,1.33
2023-03-30T08:47:34.000Z,1.50
2023-03-30T08:49:05.486Z,1.83
2023-03-30T08:50:37.042Z,1.49
2023-03-30T08:52:08.482Z,1.55
2023-03-30T08:53:39.810Z,1.64
2023-03-30T08:55:11.627Z,1.39
2023-03-30T08:56:43.548Z,1.45
2023-03-30T08:58:15.222Z,1.68
2023-03-30T08:59:46.810Z,2.05
2023-03-30T09:01:18.473Z,1.69
2023-03-30T09:02:50.136Z,1.79
2023-03-30T09:04:21.547Z,1.60
2023-03-30T09:05:53.126Z,1.69
2023-03-30T09:07:24.659Z,1.36
2023-03-30T09:08:56.284Z,1.36
2023-03-30T09:10:28.243Z,1.42
2023-03-30T09:11:59.605Z,1.16
2023-03-30T09:13:31.341Z,1.23
2023-03-30T09:15:02.918Z,1.35
2023-03-30T09:16:39.701Z,1.19
2023-03-30T09:18:11.326Z,1.17
2023-03-30T09:19:42.782Z,1.52
2023-03-30T09:21:14.485Z,1.12
2023-03-30T09:22:45.874Z,1.35
2023-03-30T09:24:17.437Z,1.17
2023-03-30T09:25:48.975Z,1.62
2023-03-30T09:27:20.477Z,1.87
2023-03-30T09:28:52.021Z,1.82
2023-03-30T09:30:23.433Z,1.59
2023-03-30T09:31:54.887Z,1.91
2023-03-30T09:33:26.485Z,1.48
2023-03-30T09:34:57.995Z,1.94
2023-03-30T09:36:29.581Z,1.95
2023-03-30T09:38:01.328Z,1.93
2023-03-30T09:39:33.712Z,1.59
2023-03-30T09:41:05.442Z,1.39
2023-03-30T09:42:37.111Z,1.59
2023-03-30T09:44:08.783Z,1.72
2023-03-30T09:45:40.347Z,1.77
2023-03-30T09:47:11.737Z,1.79
2023-03-30T09:48:43.273Z,1.72
2023-03-30T09:50:14.699Z,1.61
2023-03-30T09:51:46.230Z,1.57
2023-03-30T09:53:18.023Z,1.21
2023-03-30T09:54:50.070Z,1.30
2023-03-30T09:56:21.388Z,1.64
2023-03-30T09:57:52.917Z,1.59
2023-03-30T09:59:24.413Z,1.57
2023-03-30T10:00:55.849Z,1.53
2023-03-30T10:02:27.594Z,1.49
2023-03-30T10:03:59.242Z,1.46
2023-03-30T10:05:32.294Z,1.57
2023-03-30T10:07:18.076Z,1.70
2023-03-30T10:08:50.489Z,1.59
2023-03-30T10:10:22.031Z,1.67
2023-03-30T10:11:53.352Z,1.34
2023-03-30T10:13:24.662Z,1.03
2023-03-30T10:14:56.064Z,1.07
2023-03-30T10:16:27.471Z,1.13
2023-03-30T10:17:59.404Z,1.37
2023-03-30T10:19:31.017Z,1.04
2023-03-30T10:21:02.505Z,1.11
2023-03-30T10:22:34.118Z,1.24
2023-03-30T10:24:05.573Z,1.20
2023-03-30T10:25:37.071Z,1.20
2023-03-30T10:27:08.322Z,1.13
2023-03-30T10:28:39.892Z,1.80
2023-03-30T10:30:11.386Z,1.50
2023-03-30T10:31:43.015Z,2.21
2023-03-30T10:33:14.712Z,1.88
2023-03-30T10:34:45.992Z,1.78
2023-03-30T10:36:17.350Z,1.38
2023-03-30T10:37:49.060Z,1.52
2023-03-30T10:39:20.317Z,1.93
2023-03-30T10:40:51.621Z,1.90
2023-03-30T10:42:23.079Z,1.78
2023-03-30T10:43:54.630Z,1.96
2023-03-30T10:45:26.189Z,2.09
2023-03-30T10:46:57.775Z,2.47
2023-03-30T10:48:29.221Z,2.46
2023-03-30T10:50:00.946Z,2.52
2023-03-30T10:51:32.558Z,2.47
2023-03-30T10:53:03.975Z,2.44
2023-03-30T10:54:35.464Z,2.32
2023-03-30T10:56:07.182Z,2.56
2023-03-30T10:57:38.743Z,2.02
2023-03-30T10:59:10.658Z,2.36
2023-03-30T11:00:42.001Z,2.48
2023-03-30T11:02:13.586Z,2.25
2023-03-30T11:03:45.059Z,2.36
2023-03-30T11:05:16.521Z,2.69
2023-03-30T11:06:47.862Z,2.30
2023-03-30T11:08:19.217Z,2.84
2023-03-30T11:09:50.507Z,2.78
2023-03-30T11:11:22.252Z,1.79
2023-03-30T11:12:53.557Z,1.83
2023-03-30T11:14:24.816Z,2.22
2023-03-30T11:15:56.099Z,1.89
2023-03-30T11:17:27.431Z,2.11
2023-03-30T11:18:59.006Z,2.22
2023-03-30T11:20:30.457Z,1.79
2023-03-30T11:22:01.709Z,1.71
2023-03-30T11:23:33.035Z,1.72
2023-03-30T11:25:04.379Z,2.43
2023-03-30T11:26:35.911Z,1.96
2023-03-30T11:28:07.163Z,1.64
2023-03-30T11:29:38.665Z,1.86
2023-03-30T11:31:09.949Z,2.15
2023-03-30T11:32:41.284Z,1.92
2023-03-30T11:34:12.626Z,2.29
2023-03-30T11:35:44.185Z,2.06
2023-03-30T11:37:15.553Z,2.17
2023-03-30T11:38:46.963Z,1.97
2023-03-30T11:40:18.241Z,1.83
2023-03-30T11:41:49.572Z,2.05
2023-03-30T11:43:20.948Z,1.99
2023-03-30T11:44:52.286Z,2.42
2023-03-30T11:46:23.739Z,2.29
2023-03-30T11:47:55.211Z,2.31
2023-03-30T11:49:26.773Z,2.14
2023-03-30T11:50:58.680Z,2.20
2023-03-30T11:52:30.116Z,2.52
2023-03-30T11:54:01.633Z,2.18
2023-03-30T11:55:33.138Z,2.21
2023-03-30T11:57:04.635Z,1.95
2023-03-30T11:58:36.227Z,1.90
2023-03-30T12:00:07.621Z,2.31
2023-03-30T12:01:38.988Z,2.95
2023-03-30T12:03:10.525Z,2.02
2023-03-30T12:04:43.968Z,1.76
2023-03-30T12:06:15.571Z,1.90
2023-03-30T12:07:46.954Z,1.80
2023-03-30T12:09:18.408Z,2.13
2023-03-30T12:10:49.936Z,1.61
2023-03-30T12:12:21.451Z,1.68
2023-03-30T12:13:53.937Z,1.93
2023-03-30T12:15:25.309Z,1.83
2023-03-30T12:16:56.688Z,2.27
2023-03-30T12:18:28.073Z,2.79
2023-03-30T12:19:59.424Z,2.16
2023-03-30T12:21:30.758Z,1.84
2023-03-30T12:23:02.154Z,1.87
2023-03-30T12:24:33.576Z,2.36
2023-03-30T12:26:05.378Z,1.84
2023-03-30T12:27:37.053Z,1.97
2023-03-30T12:30:42.791Z,2.67
2023-03-30T12:32:14.143Z,2.60
2023-03-30T12:33:45.753Z,2.32
2023-03-30T12:35:17.201Z,1.71
2023-03-30T12:36:48.707Z,1.78
2023-03-30T12:38:21.840Z,2.11
2023-03-30T12:39:53.527Z,2.02
2023-03-30T12:41:25.017Z,2.11
2023-03-30T12:42:56.564Z,2.09
2023-03-30T12:44:27.942Z,2.42
2023-03-30T12:45:59.546Z,2.25
2023-03-30T12:47:31.056Z,2.82
2023-03-30T12:49:05.062Z,2.36
2023-03-30T12:50:37.136Z,2.37
2023-03-30T12:52:09.882Z,2.55
2023-03-30T12:53:41.309Z,1.91
2023-03-30T12:55:12.797Z,1.76
2023-03-30T12:56:44.327Z,2.36
2023-03-30T12:58:15.945Z,2.45
2023-03-30T12:59:49.065Z,1.55
2023-03-30T13:01:20.833Z,2.08
2023-03-30T13:02:52.403Z,2.27
2023-03-30T13:04:28.813Z,2.06
2023-03-30T13:06:01.817Z,1.77
2023-03-30T13:07:33.184Z,1.50
2023-03-30T13:09:04.480Z,1.00
2023-03-30T13:10:40.977Z,0.96
2023-03-30T13:12:12.256Z,1.29
2023-03-30T13:13:48.576Z,1.19
2023-03-30T13:15:20.130Z,1.15
2023-03-30T13:16:51.751Z,1.33
2023-03-30T13:18:23.082Z,1.34
2023-03-30T13:19:54.357Z,1.18
2023-03-30T13:21:25.962Z,1.57
2023-03-30T13:22:57.325Z,1.36
2023-03-30T13:25:04.316Z,1.50
2023-03-30T13:26:35.727Z,1.23
2023-03-30T13:28:07.092Z,1.33
2023-03-30T13:29:38.528Z,1.21
2023-03-30T13:31:10.161Z,1.35
2023-03-30T13:32:51.771Z,1.31
2023-03-30T13:34:24.319Z,1.38
2023-03-30T13:36:06.606Z,1.36
2023-03-30T13:37:58.134Z,1.41
2023-03-30T13:40:24.268Z,1.47
2023-03-30T13:42:07.490Z,1.82
2023-03-30T13:43:43.262Z,2.19
2023-03-30T13:45:55.001Z,2.14
2023-03-30T13:48:07.627Z,1.96
2023-03-30T13:51:39.621Z,1.95
2023-03-30T13:53:11.151Z,2.40
2023-03-30T13:54:47.490Z,2.14
2023-03-30T13:58:15.617Z,2.03
2023-03-30T13:59:57.003Z,2.59
2023-03-30T14:01:28.492Z,2.66
2023-03-30T14:03:38.120Z,2.48
2023-03-30T14:05:20.087Z,2.21
2023-03-30T14:06:52.529Z,1.66
2023-03-30T14:08:26.088Z,2.09
2023-03-30T14:10:02.993Z,2.06
2023-03-30T14:11:34.505Z,1.87
2023-03-30T14:13:05.967Z,1.91
2023-03-30T14:14:37.362Z,1.98
2023-03-30T14:16:08.791Z,2.41
2023-03-30T14:17:40.237Z,2.07
2023-03-30T14:19:11.822Z,1.72
2023-03-30T14:20:43.404Z,1.67
2023-03-30T14:22:14.835Z,1.68
2023-03-30T14:23:46.331Z,2.19
2023-03-30T14:25:17.695Z,2.12
2023-03-30T14:26:49.490Z,1.80
2023-03-30T14:28:21.428Z,1.46
2023-03-30T14:29:52.942Z,1.82
2023-03-30T14:31:24.335Z,1.79
2023-03-30T14:32:55.767Z,1.82
2023-03-30T14:34:32.409Z,1.97
2023-03-30T14:36:13.805Z,1.94
2023-03-30T14:37:52.299Z,1.98
2023-03-30T14:39:34.357Z,1.82
2023-03-30T14:41:05.612Z,2.07
2023-03-30T14:42:36.988Z,2.06
2023-03-30T14:44:08.365Z,1.87
2023-03-30T14:45:40.883Z,1.74
2023-03-30T14:47:12.492Z,1.79
2023-03-30T14:48:43.861Z,2.00
2023-03-30T14:50:15.259Z,1.67
2023-03-30T14:51:56.865Z,1.51
2023-03-30T14:53:48.502Z,1.74
2023-03-30T14:55:42.237Z,2.21
2023-03-30T14:57:18.908Z,1.64
2023-03-30T14:58:55.321Z,2.03
2023-03-30T15:00:26.640Z,1.99
2023-03-30T15:02:08.124Z,2.11
2023-03-30T15:04:28.864Z,1.76
2023-03-30T15:06:29.699Z,1.96
2023-03-30T15:08:33.431Z,2.02
2023-03-30T15:10:05.028Z,1.99
2023-03-30T15:11:36.404Z,1.98
2023-03-30T15:13:08.052Z,1.63
2023-03-30T15:17:11.051Z,1.58
2023-03-30T15:18:58.799Z,2.28
2023-03-30T15:20:30.337Z,3.19
2023-03-30T15:22:01.825Z,2.90
2023-03-30T15:23:33.547Z,2.98
2023-03-30T15:25:05.358Z,2.58
2023-03-30T15:26:36.624Z,2.15
2023-03-30T15:28:23.373Z,2.05
2023-03-30T15:29:54.793Z,2.26
2023-03-30T15:31:26.217Z,2.18
2023-03-30T15:32:57.751Z,2.54
2023-03-30T15:35:00.536Z,2.54
2023-03-30T15:36:32.370Z,2.17
2023-03-30T15:38:04.650Z,2.68
2023-03-30T15:41:56.432Z,2.69
2023-03-30T15:43:27.951Z,2.52
2023-03-30T15:45:33.609Z,2.74
2023-03-30T15:47:05.510Z,3.01
2023-03-30T15:49:52.715Z,3.02
2023-03-30T15:53:15.554Z,2.96
2023-03-30T15:54:46.840Z,3.15
2023-03-30T15:56:18.404Z,2.83
2023-03-30T15:57:50.104Z,2.53
2023-03-30T15:59:21.803Z,2.85
2023-03-30T16:00:53.300Z,2.23
2023-03-30T16:02:24.678Z,2.11
2023-03-30T16:03:56.235Z,1.83
2023-03-30T16:05:27.868Z,2.06
2023-03-30T16:06:59.296Z,1.85
2023-03-30T16:08:30.749Z,2.26
2023-03-30T16:10:02.077Z,2.08
2023-03-30T16:11:38.473Z,2.00
2023-03-30T16:13:14.869Z,2.40
2023-03-30T16:14:46.303Z,2.50
2023-03-30T16:16:17.657Z,2.42
2023-03-30T16:17:49.230Z,2.71
2023-03-30T16:19:20.670Z,2.67
2023-03-30T16:20:52.148Z,2.32
2023-03-30T16:22:23.772Z,1.89
2023-03-30T16:23:55.075Z,2.39
2023-03-30T16:26:59.791Z,2.49
2023-03-30T16:28:31.237Z,2.56
2023-03-30T16:30:02.699Z,2.51
2023-03-30T16:31:34.032Z,2.71
2023-03-30T16:33:05.383Z,2.92
2023-03-30T16:34:36.898Z,2.90
2023-03-30T16:36:08.651Z,3.15
2023-03-30T16:37:40.002Z,3.68
2023-03-30T16:39:11.283Z,3.66
2023-03-30T16:40:43.163Z,3.09
2023-03-30T16:42:14.775Z,3.29
2023-03-30T16:43:46.042Z,3.46
2023-03-30T16:45:17.439Z,3.03
2023-03-30T16:46:48.836Z,3.45
2023-03-30T16:48:20.424Z,3.19
2023-03-30T16:49:51.881Z,3.10
2023-03-30T16:51:23.239Z,3.51
2023-03-30T16:52:54.543Z,3.53
2023-03-30T16:56:05.852Z,2.99
2023-03-30T16:57:47.408Z,3.45
2023-03-30T16:59:19.869Z,3.30
2023-03-30T17:00:51.389Z,3.53
2023-03-30T17:02:22.771Z,3.15
2023-03-30T17:03:54.062Z,3.24
2023-03-30T17:05:25.424Z,2.98
2023-03-30T17:06:56.831Z,3.10
2023-03-30T17:08:28.272Z,3.27
2023-03-30T17:10:00.766Z,3.07
2023-03-30T17:11:32.082Z,3.09
2023-03-30T17:13:03.435Z,2.91
2023-03-30T17:14:34.706Z,2.86
2023-03-30T17:16:06.040Z,2.99
2023-03-30T17:17:37.488Z,2.86
2023-03-30T17:19:13.809Z,2.84
2023-03-30T17:20:45.075Z,2.60
2023-03-30T17:22:16.457Z,2.91
2023-03-30T17:23:48.028Z,3.07
2023-03-30T17:25:19.612Z,2.99
2023-03-30T17:26:50.963Z,2.73
2023-03-30T17:28:22.219Z,3.01
2023-03-30T17:29:53.680Z,2.78
2023-03-30T17:31:25.254Z,3.09
2023-03-30T17:32:56.681Z,2.99
2023-03-30T17:34:28.173Z,2.55
2023-03-30T17:35:59.572Z,3.01
2023-03-30T17:37:30.913Z,2.51
2023-03-30T17:39:02.321Z,2.52
2023-03-30T17:40:33.704Z,2.58
2023-03-30T17:42:05.030Z,2.38
2023-03-30T17:43:36.476Z,1.70
2023-03-30T17:45:08.515Z,1.73
2023-03-30T17:46:39.996Z,2.06
2023-03-30T17:48:11.799Z,2.00
2023-03-30T17:49:43.253Z,2.10
2023-03-30T17:51:14.935Z,2.16
2023-03-30T17:52:46.456Z,1.93
2023-03-30T17:54:17.902Z,1.53
2023-03-30T17:55:49.357Z,2.25
2023-03-30T17:57:20.716Z,1.91
2023-03-30T17:58:52.251Z,2.04
2023-03-30T18:00:23.539Z,2.24
2023-03-30T18:01:54.910Z,1.83
2023-03-30T18:03:26.354Z,1.93
2023-03-30T18:04:57.712Z,2.12
2023-03-30T18:06:39.072Z,1.92
2023-03-30T18:08:15.318Z,2.03
2023-03-30T18:09:51.723Z,2.03
2023-03-30T18:11:23.767Z,1.77
2023-03-30T18:13:25.141Z,1.74
2023-03-30T18:15:01.399Z,1.77
2023-03-30T18:16:32.902Z,1.99
2023-03-30T18:18:04.303Z,1.82
2023-03-30T18:19:35.769Z,1.31
2023-03-30T18:21:07.518Z,1.73
2023-03-30T18:22:38.986Z,1.86
2023-03-30T18:24:10.426Z,1.69
2023-03-30T18:25:41.892Z,1.96
2023-03-30T18:27:13.183Z,1.89
2023-03-30T18:28:44.717Z,1.71
2023-03-30T18:30:21.096Z,2.29
2023-03-30T18:31:58.133Z,2.00
2023-03-30T18:33:29.501Z,2.19
2023-03-30T18:35:00.995Z,2.29
2023-03-30T18:36:37.437Z,2.17
2023-03-30T18:38:08.728Z,2.26
2023-03-30T18:39:40.110Z,2.50
2023-03-30T18:41:12.524Z,2.74
2023-03-30T18:42:44.385Z,2.61
2023-03-30T18:44:15.678Z,2.54
2023-03-30T18:45:52.248Z,2.83
2023-03-30T18:47:23.691Z,3.06
2023-03-30T18:48:55.097Z,3.02
2023-03-30T18:50:26.418Z,3.09
2023-03-30T18:51:57.979Z,3.00
2023-03-30T18:53:34.432Z,3.03
2023-03-30T18:55:05.749Z,2.87
2023-03-30T18:56:37.107Z,2.81
2023-03-30T18:58:08.542Z,2.68
2023-03-30T18:59:41.121Z,2.68
2023-03-30T19:01:12.561Z,2.56
2023-03-30T19:02:44.139Z,2.34
2023-03-30T19:04:15.974Z,2.39
2023-03-30T19:05:47.440Z,2.61
2023-03-30T19:07:18.858Z,2.49
2023-03-30T19:08:50.302Z,2.59
2023-03-30T19:10:21.652Z,2.22
2023-03-30T19:12:03.138Z,2.30
2023-03-30T19:13:34.428Z,2.71
2023-03-30T19:15:05.793Z,2.25
2023-03-30T19:16:37.421Z,2.40
2023-03-30T19:18:08.711Z,2.20
2023-03-30T19:19:40.316Z,2.14
2023-03-30T19:21:12.050Z,2.48
2023-03-30T19:22:43.597Z,2.11
2023-03-30T19:24:16.058Z,2.27
2023-03-30T19:25:47.497Z,2.34
2023-03-30T19:27:18.905Z,2.15
2023-03-30T19:28:50.271Z,2.13
2023-03-30T19:30:21.607Z,2.28
2023-03-30T19:31:53.037Z,2.21
2023-03-30T19:33:24.944Z,2.30
2023-03-30T19:34:56.474Z,2.29
2023-03-30T19:36:28.251Z,2.42
2023-03-30T19:37:59.946Z,2.47
2023-03-30T19:39:31.567Z,2.14
2023-03-30T19:41:03.226Z,2.40
2023-03-30T19:42:39.771Z,2.36
2023-03-30T19:44:11.234Z,2.02
2023-03-30T19:45:42.675Z,2.08
2023-03-30T19:47:14.262Z,2.43
2023-03-30T19:48:45.532Z,2.46
2023-03-30T19:50:16.797Z,2.08
2023-03-30T19:52:03.211Z,2.26
2023-03-30T19:53:34.584Z,2.07
2023-03-30T19:55:06.110Z,2.32
2023-03-30T19:56:37.584Z,2.46
2023-03-30T19:58:08.992Z,2.06
2023-03-30T19:59:40.282Z,1.96
2023-03-30T20:01:16.882Z,1.83
2023-03-30T20:02:48.469Z,1.74
2023-03-30T20:04:20.117Z,1.97
2023-03-30T20:05:51.466Z,2.04
2023-03-30T20:07:22.897Z,1.87
2023-03-30T20:08:54.494Z,1.78
2023-03-30T20:10:27.066Z,1.77
2023-03-30T20:12:24.451Z,1.88
2023-03-30T20:13:55.754Z,2.02
2023-03-30T20:15:27.039Z,2.09
2023-03-30T20:16:59.607Z,2.02
2023-03-30T20:18:30.927Z,1.82
2023-03-30T20:20:02.185Z,2.15
2023-03-30T20:21:33.534Z,1.99
2023-03-30T20:23:04.862Z,2.03
2023-03-30T20:24:36.210Z,1.90
2023-03-30T20:26:12.445Z,1.90
2023-03-30T20:27:43.840Z,2.07
2023-03-30T20:29:15.168Z,2.27
2023-03-30T20:30:46.526Z,1.83
2023-03-30T20:32:27.976Z,1.83
2023-03-30T20:33:59.563Z,2.01
2023-03-30T20:35:35.983Z,2.03
2023-03-30T20:37:07.419Z,1.69
2023-03-30T20:38:38.867Z,2.04
2023-03-30T20:40:10.390Z,1.89
2023-03-30T20:41:42.060Z,1.65
2023-03-30T20:43:14.022Z,1.94
2023-03-30T20:44:45.486Z,1.91
2023-03-30T20:46:17.886Z,2.12
2023-03-30T20:47:49.382Z,2.23
2023-03-30T20:49:36.941Z,1.95